sensor_id;sensor_type;location;lat;lon;timestamp;P1;durP1;ratioP1;P2;durP2;ratioP2
9722;SDS011;4900;49.306;8.500;2023-12-20T00:02:08;9.37;;;7.03;;
9722;SDS011;4900;49.306;8.500;2023-12-20T00:04:33;10.80;;;7.40;;
9722;SDS011;4900;49.306;8.500;2023-12-20T00:06:58;11.17;;;7.17;;
9722;SDS011;4900;49.306;8.500;2023-12-20T00:09:24;9.87;;;6.73;;
9722;SDS011;4900;49.306;8.500;2023-12-20T00:11:50;11.80;;;7.33;;
9722;SDS011;4900;49.306;8.500;2023-12-20T00:14:15;11.17;;;7.50;;
9722;SDS011;4900;49.306;8.500;2023-12-20T00:16:40;10.23;;;7.03;;
9722;SDS011;4900;49.306;8.500;2023-12-20T00:19:06;11.73;;;7.10;;
9722;SDS011;4900;49.306;8.500;2023-12-20T00:21:38;9.30;;;6.77;;
9722;SDS011;4900;49.306;8.500;2023-12-20T00:24:07;10.37;;;7.53;;
9722;SDS011;4900;49.306;8.500;2023-12-20T00:26:32;9.93;;;7.30;;
9722;SDS011;4900;49.306;8.500;2023-12-20T00:28:58;10.50;;;7.17;;
9722;SDS011;4900;49.306;8.500;2023-12-20T00:31:23;11.13;;;6.67;;
9722;SDS011;4900;49.306;8.500;2023-12-20T00:33:48;9.47;;;7.10;;
9722;SDS011;4900;49.306;8.500;2023-12-20T00:36:14;13.00;;;7.80;;
9722;SDS011;4900;49.306;8.500;2023-12-20T00:38:39;10.10;;;6.57;;
9722;SDS011;4900;49.306;8.500;2023-12-20T00:41:04;12.63;;;7.20;;
9722;SDS011;4900;49.306;8.500;2023-12-20T00:43:30;13.90;;;7.30;;
9722;SDS011;4900;49.306;8.500;2023-12-20T00:45:55;9.53;;;6.40;;
9722;SDS011;4900;49.306;8.500;2023-12-20T00:48:21;10.33;;;6.87;;
9722;SDS011;4900;49.306;8.500;2023-12-20T00:50:46;10.97;;;6.07;;
9722;SDS011;4900;49.306;8.500;2023-12-20T00:53:12;9.90;;;6.47;;
9722;SDS011;4900;49.306;8.500;2023-12-20T00:55:37;8.87;;;6.40;;
9722;SDS011;4900;49.306;8.500;2023-12-20T00:58:03;8.43;;;6.40;;
9722;SDS011;4900;49.306;8.500;2023-12-20T01:00:28;9.07;;;6.63;;
9722;SDS011;4900;49.306;8.500;2023-12-20T01:02:54;9.77;;;6.57;;
9722;SDS011;4900;49.306;8.500;2023-12-20T01:05:20;10.63;;;6.87;;
9722;SDS011;4900;49.306;8.500;2023-12-20T01:07:48;9.73;;;6.23;;
9722;SDS011;4900;49.306;8.500;2023-12-20T01:10:14;9.70;;;6.87;;
9722;SDS011;4900;49.306;8.500;2023-12-20T01:12:39;11.10;;;7.33;;
9722;SDS011;4900;49.306;8.500;2023-12-20T01:15:05;9.97;;;7.10;;
9722;SDS011;4900;49.306;8.500;2023-12-20T01:17:31;8.67;;;6.47;;
9722;SDS011;4900;49.306;8.500;2023-12-20T01:19:56;10.57;;;7.17;;
9722;SDS011;4900;49.306;8.500;2023-12-20T01:22:22;10.67;;;6.47;;
9722;SDS011;4900;49.306;8.500;2023-12-20T01:24:47;9.60;;;6.87;;
9722;SDS011;4900;49.306;8.500;2023-12-20T01:27:22;10.67;;;6.70;;
9722;SDS011;4900;49.306;8.500;2023-12-20T01:29:47;11.37;;;7.00;;
9722;SDS011;4900;49.306;8.500;2023-12-20T01:32:12;10.40;;;7.00;;
9722;SDS011;4900;49.306;8.500;2023-12-20T01:34:38;10.57;;;6.43;;
9722;SDS011;4900;49.306;8.500;2023-12-20T01:37:03;10.17;;;7.03;;
9722;SDS011;4900;49.306;8.500;2023-12-20T01:39:29;10.87;;;6.47;;
9722;SDS011;4900;49.306;8.500;2023-12-20T01:41:54;9.97;;;6.40;;
9722;SDS011;4900;49.306;8.500;2023-12-20T01:44:20;8.50;;;6.27;;
9722;SDS011;4900;49.306;8.500;2023-12-20T01:46:51;11.87;;;6.50;;
9722;SDS011;4900;49.306;8.500;2023-12-20T01:49:17;10.73;;;7.23;;
9722;SDS011;4900;49.306;8.500;2023-12-20T01:51:52;9.33;;;6.73;;
9722;SDS011;4900;49.306;8.500;2023-12-20T01:54:17;8.60;;;6.20;;
9722;SDS011;4900;49.306;8.500;2023-12-20T01:56:45;9.67;;;6.33;;
9722;SDS011;4900;49.306;8.500;2023-12-20T01:59:11;9.07;;;6.27;;
9722;SDS011;4900;49.306;8.500;2023-12-20T02:01:37;8.73;;;5.87;;
9722;SDS011;4900;49.306;8.500;2023-12-20T02:04:03;7.60;;;5.50;;
9722;SDS011;4900;49.306;8.500;2023-12-20T02:06:30;8.80;;;5.97;;
9722;SDS011;4900;49.306;8.500;2023-12-20T02:08:59;9.37;;;6.00;;
9722;SDS011;4900;49.306;8.500;2023-12-20T02:11:25;8.97;;;5.40;;
9722;SDS011;4900;49.306;8.500;2023-12-20T02:13:51;8.80;;;5.77;;
9722;SDS011;4900;49.306;8.500;2023-12-20T02:16:17;8.90;;;5.83;;
9722;SDS011;4900;49.306;8.500;2023-12-20T02:18:42;9.87;;;6.20;;
9722;SDS011;4900;49.306;8.500;2023-12-20T02:21:09;10.87;;;6.10;;
9722;SDS011;4900;49.306;8.500;2023-12-20T02:23:35;6.77;;;5.50;;
9722;SDS011;4900;49.306;8.500;2023-12-20T02:26:01;7.80;;;5.53;;
9722;SDS011;4900;49.306;8.500;2023-12-20T02:28:27;7.70;;;5.60;;
9722;SDS011;4900;49.306;8.500;2023-12-20T02:30:53;7.43;;;5.13;;
9722;SDS011;4900;49.306;8.500;2023-12-20T02:33:18;7.83;;;5.43;;
9722;SDS011;4900;49.306;8.500;2023-12-20T02:35:44;6.77;;;5.30;;
9722;SDS011;4900;49.306;8.500;2023-12-20T02:38:09;20.03;;;6.80;;
9722;SDS011;4900;49.306;8.500;2023-12-20T02:40:35;7.20;;;5.00;;
9722;SDS011;4900;49.306;8.500;2023-12-20T02:43:00;14.87;;;5.93;;
9722;SDS011;4900;49.306;8.500;2023-12-20T02:45:26;6.97;;;4.90;;
9722;SDS011;4900;49.306;8.500;2023-12-20T02:47:52;7.80;;;4.83;;
9722;SDS011;4900;49.306;8.500;2023-12-20T02:50:17;7.00;;;4.50;;
9722;SDS011;4900;49.306;8.500;2023-12-20T02:52:44;6.97;;;4.93;;
9722;SDS011;4900;49.306;8.500;2023-12-20T02:55:10;7.90;;;4.90;;
9722;SDS011;4900;49.306;8.500;2023-12-20T02:57:35;6.73;;;4.57;;
9722;SDS011;4900;49.306;8.500;2023-12-20T03:00:01;5.47;;;3.97;;
9722;SDS011;4900;49.306;8.500;2023-12-20T03:02:27;5.87;;;4.03;;
9722;SDS011;4900;49.306;8.500;2023-12-20T03:04:52;10.83;;;4.97;;
9722;SDS011;4900;49.306;8.500;2023-12-20T03:07:18;7.00;;;3.87;;
9722;SDS011;4900;49.306;8.500;2023-12-20T03:09:43;4.90;;;3.60;;
9722;SDS011;4900;49.306;8.500;2023-12-20T03:12:09;6.10;;;3.90;;
9722;SDS011;4900;49.306;8.500;2023-12-20T03:14:34;5.03;;;3.80;;
9722;SDS011;4900;49.306;8.500;2023-12-20T03:16:59;5.27;;;3.80;;
9722;SDS011;4900;49.306;8.500;2023-12-20T03:19:25;5.40;;;4.00;;
9722;SDS011;4900;49.306;8.500;2023-12-20T03:21:50;4.73;;;3.90;;
9722;SDS011;4900;49.306;8.500;2023-12-20T03:24:18;5.73;;;3.83;;
9722;SDS011;4900;49.306;8.500;2023-12-20T03:26:43;5.73;;;3.50;;
9722;SDS011;4900;49.306;8.500;2023-12-20T03:29:15;7.73;;;4.10;;
9722;SDS011;4900;49.306;8.500;2023-12-20T03:31:40;6.47;;;3.77;;
9722;SDS011;4900;49.306;8.500;2023-12-20T03:34:05;6.60;;;3.97;;
9722;SDS011;4900;49.306;8.500;2023-12-20T03:36:31;5.07;;;4.10;;
9722;SDS011;4900;49.306;8.500;2023-12-20T03:39:09;11.77;;;4.33;;
9722;SDS011;4900;49.306;8.500;2023-12-20T03:41:35;6.30;;;3.93;;
9722;SDS011;4900;49.306;8.500;2023-12-20T03:44:00;5.23;;;3.90;;
9722;SDS011;4900;49.306;8.500;2023-12-20T03:46:26;6.37;;;4.17;;
9722;SDS011;4900;49.306;8.500;2023-12-20T03:48:52;8.53;;;5.30;;
9722;SDS011;4900;49.306;8.500;2023-12-20T03:51:17;6.47;;;5.10;;
9722;SDS011;4900;49.306;8.500;2023-12-20T03:53:43;8.07;;;5.80;;
9722;SDS011;4900;49.306;8.500;2023-12-20T03:56:08;6.97;;;5.53;;
9722;SDS011;4900;49.306;8.500;2023-12-20T03:58:34;10.27;;;6.70;;
9722;SDS011;4900;49.306;8.500;2023-12-20T04:01:00;13.27;;;7.03;;
9722;SDS011;4900;49.306;8.500;2023-12-20T04:03:26;7.53;;;6.40;;
9722;SDS011;4900;49.306;8.500;2023-12-20T04:05:51;7.97;;;6.43;;
9722;SDS011;4900;49.306;8.500;2023-12-20T04:11:04;9.07;;;6.50;;
9722;SDS011;4900;49.306;8.500;2023-12-20T04:13:29;8.27;;;7.17;;
9722;SDS011;4900;49.306;8.500;2023-12-20T04:15:54;8.07;;;6.80;;
9722;SDS011;4900;49.306;8.500;2023-12-20T04:18:20;9.67;;;7.47;;
9722;SDS011;4900;49.306;8.500;2023-12-20T04:20:45;9.00;;;7.33;;
9722;SDS011;4900;49.306;8.500;2023-12-20T04:23:11;10.57;;;8.13;;
9722;SDS011;4900;49.306;8.500;2023-12-20T04:25:36;10.73;;;8.53;;
9722;SDS011;4900;49.306;8.500;2023-12-20T04:28:01;10.70;;;8.70;;
9722;SDS011;4900;49.306;8.500;2023-12-20T04:30:27;17.80;;;9.17;;
9722;SDS011;4900;49.306;8.500;2023-12-20T04:32:53;12.13;;;7.93;;
9722;SDS011;4900;49.306;8.500;2023-12-20T04:35:18;11.93;;;7.40;;
9722;SDS011;4900;49.306;8.500;2023-12-20T04:37:44;9.77;;;7.13;;
9722;SDS011;4900;49.306;8.500;2023-12-20T04:40:09;9.27;;;6.67;;
9722;SDS011;4900;49.306;8.500;2023-12-20T04:42:35;11.00;;;6.93;;
9722;SDS011;4900;49.306;8.500;2023-12-20T04:45:00;10.23;;;6.97;;
9722;SDS011;4900;49.306;8.500;2023-12-20T04:47:25;11.83;;;7.37;;
9722;SDS011;4900;49.306;8.500;2023-12-20T04:49:51;9.27;;;6.87;;
9722;SDS011;4900;49.306;8.500;2023-12-20T04:52:16;8.80;;;6.90;;
9722;SDS011;4900;49.306;8.500;2023-12-20T04:54:42;8.70;;;6.87;;
9722;SDS011;4900;49.306;8.500;2023-12-20T04:57:07;10.80;;;6.43;;
9722;SDS011;4900;49.306;8.500;2023-12-20T04:59:32;10.77;;;5.90;;
9722;SDS011;4900;49.306;8.500;2023-12-20T05:01:58;7.87;;;5.10;;
9722;SDS011;4900;49.306;8.500;2023-12-20T05:04:24;3.80;;;2.90;;
9722;SDS011;4900;49.306;8.500;2023-12-20T05:06:50;5.10;;;3.50;;
9722;SDS011;4900;49.306;8.500;2023-12-20T05:09:15;6.37;;;3.77;;
9722;SDS011;4900;49.306;8.500;2023-12-20T05:11:41;12.13;;;4.27;;
9722;SDS011;4900;49.306;8.500;2023-12-20T05:14:06;3.27;;;2.90;;
9722;SDS011;4900;49.306;8.500;2023-12-20T05:16:32;6.60;;;3.07;;
9722;SDS011;4900;49.306;8.500;2023-12-20T05:18:57;3.70;;;2.70;;
9722;SDS011;4900;49.306;8.500;2023-12-20T05:21:25;6.30;;;3.00;;
9722;SDS011;4900;49.306;8.500;2023-12-20T05:23:51;3.17;;;2.47;;
9722;SDS011;4900;49.306;8.500;2023-12-20T05:26:16;3.00;;;2.57;;
9722;SDS011;4900;49.306;8.500;2023-12-20T05:28:42;4.40;;;2.60;;
9722;SDS011;4900;49.306;8.500;2023-12-20T05:31:07;3.93;;;2.60;;
9722;SDS011;4900;49.306;8.500;2023-12-20T05:33:32;4.20;;;3.23;;
9722;SDS011;4900;49.306;8.500;2023-12-20T05:35:58;5.13;;;2.97;;
9722;SDS011;4900;49.306;8.500;2023-12-20T05:38:24;5.77;;;3.23;;
9722;SDS011;4900;49.306;8.500;2023-12-20T05:40:49;4.17;;;2.70;;
9722;SDS011;4900;49.306;8.500;2023-12-20T05:43:15;3.77;;;2.87;;
9722;SDS011;4900;49.306;8.500;2023-12-20T05:45:40;13.17;;;5.60;;
9722;SDS011;4900;49.306;8.500;2023-12-20T05:48:05;4.60;;;3.93;;
9722;SDS011;4900;49.306;8.500;2023-12-20T05:50:31;4.57;;;3.57;;
9722;SDS011;4900;49.306;8.500;2023-12-20T05:52:56;8.73;;;3.93;;
9722;SDS011;4900;49.306;8.500;2023-12-20T05:55:22;5.83;;;4.00;;
9722;SDS011;4900;49.306;8.500;2023-12-20T05:57:47;6.57;;;3.80;;
9722;SDS011;4900;49.306;8.500;2023-12-20T06:00:13;10.40;;;4.63;;
9722;SDS011;4900;49.306;8.500;2023-12-20T06:02:39;3.83;;;3.40;;
9722;SDS011;4900;49.306;8.500;2023-12-20T06:05:05;5.00;;;3.47;;
9722;SDS011;4900;49.306;8.500;2023-12-20T06:07:30;3.80;;;3.40;;
9722;SDS011;4900;49.306;8.500;2023-12-20T06:09:56;3.50;;;3.03;;
9722;SDS011;4900;49.306;8.500;2023-12-20T06:12:21;7.60;;;3.93;;
9722;SDS011;4900;49.306;8.500;2023-12-20T06:14:46;4.57;;;3.40;;
9722;SDS011;4900;49.306;8.500;2023-12-20T06:17:12;4.30;;;3.23;;
9722;SDS011;4900;49.306;8.500;2023-12-20T06:19:37;5.57;;;3.90;;
9722;SDS011;4900;49.306;8.500;2023-12-20T06:22:09;4.60;;;4.00;;
9722;SDS011;4900;49.306;8.500;2023-12-20T06:24:35;14.87;;;8.77;;
9722;SDS011;4900;49.306;8.500;2023-12-20T06:27:01;9.03;;;4.80;;
9722;SDS011;4900;49.306;8.500;2023-12-20T06:29:26;5.20;;;4.23;;
9722;SDS011;4900;49.306;8.500;2023-12-20T06:31:54;6.27;;;4.50;;
9722;SDS011;4900;49.306;8.500;2023-12-20T06:34:19;6.43;;;3.90;;
9722;SDS011;4900;49.306;8.500;2023-12-20T06:36:47;4.33;;;3.53;;
9722;SDS011;4900;49.306;8.500;2023-12-20T06:39:12;4.93;;;4.10;;
9722;SDS011;4900;49.306;8.500;2023-12-20T06:41:39;8.77;;;4.20;;
9722;SDS011;4900;49.306;8.500;2023-12-20T06:44:04;24.63;;;13.50;;
9722;SDS011;4900;49.306;8.500;2023-12-20T06:46:30;7.33;;;5.90;;
9722;SDS011;4900;49.306;8.500;2023-12-20T06:48:55;7.00;;;4.70;;
9722;SDS011;4900;49.306;8.500;2023-12-20T06:51:21;6.27;;;4.67;;
9722;SDS011;4900;49.306;8.500;2023-12-20T06:53:50;8.80;;;5.47;;
9722;SDS011;4900;49.306;8.500;2023-12-20T06:56:16;6.93;;;5.13;;
9722;SDS011;4900;49.306;8.500;2023-12-20T06:58:53;7.90;;;5.47;;
9722;SDS011;4900;49.306;8.500;2023-12-20T07:01:19;11.07;;;6.13;;
9722;SDS011;4900;49.306;8.500;2023-12-20T07:03:44;7.07;;;4.57;;
9722;SDS011;4900;49.306;8.500;2023-12-20T07:06:10;4.17;;;3.77;;
9722;SDS011;4900;49.306;8.500;2023-12-20T07:08:36;4.57;;;3.83;;
9722;SDS011;4900;49.306;8.500;2023-12-20T07:11:01;5.60;;;3.87;;
9722;SDS011;4900;49.306;8.500;2023-12-20T07:13:27;6.83;;;4.30;;
9722;SDS011;4900;49.306;8.500;2023-12-20T07:15:52;7.97;;;4.93;;
9722;SDS011;4900;49.306;8.500;2023-12-20T07:18:18;14.17;;;6.20;;
9722;SDS011;4900;49.306;8.500;2023-12-20T07:20:43;6.83;;;4.67;;
9722;SDS011;4900;49.306;8.500;2023-12-20T07:23:09;4.63;;;3.57;;
9722;SDS011;4900;49.306;8.500;2023-12-20T07:25:34;4.30;;;3.70;;
9722;SDS011;4900;49.306;8.500;2023-12-20T07:27:59;4.13;;;3.37;;
9722;SDS011;4900;49.306;8.500;2023-12-20T07:30:25;4.00;;;3.27;;
9722;SDS011;4900;49.306;8.500;2023-12-20T07:32:50;4.60;;;3.03;;
9722;SDS011;4900;49.306;8.500;2023-12-20T07:35:17;4.20;;;3.27;;
9722;SDS011;4900;49.306;8.500;2023-12-20T07:37:43;4.10;;;2.83;;
9722;SDS011;4900;49.306;8.500;2023-12-20T07:40:09;4.10;;;3.10;;
9722;SDS011;4900;49.306;8.500;2023-12-20T07:42:35;3.93;;;3.13;;
9722;SDS011;4900;49.306;8.500;2023-12-20T07:45:00;3.70;;;3.00;;
9722;SDS011;4900;49.306;8.500;2023-12-20T07:47:25;4.00;;;3.03;;
9722;SDS011;4900;49.306;8.500;2023-12-20T07:49:51;7.77;;;3.93;;
9722;SDS011;4900;49.306;8.500;2023-12-20T07:52:19;4.20;;;3.00;;
9722;SDS011;4900;49.306;8.500;2023-12-20T07:54:47;3.80;;;3.10;;
9722;SDS011;4900;49.306;8.500;2023-12-20T07:57:13;8.47;;;4.07;;
9722;SDS011;4900;49.306;8.500;2023-12-20T07:59:38;3.43;;;3.00;;
9722;SDS011;4900;49.306;8.500;2023-12-20T08:02:04;4.37;;;3.50;;
9722;SDS011;4900;49.306;8.500;2023-12-20T08:04:29;3.90;;;3.13;;
9722;SDS011;4900;49.306;8.500;2023-12-20T08:06:55;4.43;;;2.87;;
9722;SDS011;4900;49.306;8.500;2023-12-20T08:09:20;4.57;;;2.80;;
9722;SDS011;4900;49.306;8.500;2023-12-20T08:11:46;3.70;;;3.03;;
9722;SDS011;4900;49.306;8.500;2023-12-20T08:14:12;4.20;;;2.97;;
9722;SDS011;4900;49.306;8.500;2023-12-20T08:16:37;3.77;;;2.73;;
9722;SDS011;4900;49.306;8.500;2023-12-20T08:19:03;4.70;;;3.23;;
9722;SDS011;4900;49.306;8.500;2023-12-20T08:21:28;9.70;;;3.80;;
9722;SDS011;4900;49.306;8.500;2023-12-20T08:23:54;5.73;;;3.10;;
9722;SDS011;4900;49.306;8.500;2023-12-20T08:26:19;6.80;;;4.00;;
9722;SDS011;4900;49.306;8.500;2023-12-20T08:28:46;3.83;;;2.83;;
9722;SDS011;4900;49.306;8.500;2023-12-20T08:31:15;4.30;;;3.37;;
9722;SDS011;4900;49.306;8.500;2023-12-20T08:33:44;11.43;;;3.93;;
9722;SDS011;4900;49.306;8.500;2023-12-20T08:36:11;3.70;;;2.90;;
9722;SDS011;4900;49.306;8.500;2023-12-20T08:38:37;4.40;;;3.40;;
9722;SDS011;4900;49.306;8.500;2023-12-20T08:41:03;5.17;;;3.53;;
9722;SDS011;4900;49.306;8.500;2023-12-20T08:43:33;5.00;;;3.10;;
9722;SDS011;4900;49.306;8.500;2023-12-20T08:46:00;5.00;;;3.10;;
9722;SDS011;4900;49.306;8.500;2023-12-20T08:48:25;5.90;;;4.23;;
9722;SDS011;4900;49.306;8.500;2023-12-20T08:50:50;9.57;;;4.30;;
9722;SDS011;4900;49.306;8.500;2023-12-20T08:53:17;5.43;;;3.80;;
9722;SDS011;4900;49.306;8.500;2023-12-20T08:55:44;7.50;;;3.77;;
9722;SDS011;4900;49.306;8.500;2023-12-20T08:58:09;6.83;;;3.83;;
9722;SDS011;4900;49.306;8.500;2023-12-20T09:00:35;6.37;;;3.57;;
9722;SDS011;4900;49.306;8.500;2023-12-20T09:03:01;5.00;;;3.40;;
9722;SDS011;4900;49.306;8.500;2023-12-20T09:05:27;7.37;;;3.27;;
9722;SDS011;4900;49.306;8.500;2023-12-20T09:07:52;7.77;;;4.10;;
9722;SDS011;4900;49.306;8.500;2023-12-20T09:10:18;5.73;;;3.47;;
9722;SDS011;4900;49.306;8.500;2023-12-20T09:12:47;7.93;;;3.50;;
9722;SDS011;4900;49.306;8.500;2023-12-20T09:15:15;5.30;;;3.33;;
9722;SDS011;4900;49.306;8.500;2023-12-20T09:17:40;5.33;;;3.20;;
9722;SDS011;4900;49.306;8.500;2023-12-20T09:20:06;6.30;;;3.20;;
9722;SDS011;4900;49.306;8.500;2023-12-20T09:22:33;6.43;;;3.57;;
9722;SDS011;4900;49.306;8.500;2023-12-20T09:24:59;6.60;;;3.53;;
9722;SDS011;4900;49.306;8.500;2023-12-20T09:27:25;8.17;;;3.50;;
9722;SDS011;4900;49.306;8.500;2023-12-20T09:29:50;7.90;;;3.50;;
9722;SDS011;4900;49.306;8.500;2023-12-20T09:32:18;10.13;;;5.07;;
9722;SDS011;4900;49.306;8.500;2023-12-20T09:34:45;8.10;;;4.00;;
9722;SDS011;4900;49.306;8.500;2023-12-20T09:37:11;6.40;;;3.57;;
9722;SDS011;4900;49.306;8.500;2023-12-20T09:39:37;5.77;;;3.60;;
9722;SDS011;4900;49.306;8.500;2023-12-20T09:42:03;8.43;;;3.37;;
9722;SDS011;4900;49.306;8.500;2023-12-20T09:44:30;3.83;;;2.40;;
9722;SDS011;4900;49.306;8.500;2023-12-20T09:46:56;9.67;;;3.27;;
9722;SDS011;4900;49.306;8.500;2023-12-20T09:49:22;5.60;;;2.80;;
9722;SDS011;4900;49.306;8.500;2023-12-20T09:51:49;6.83;;;3.20;;
9722;SDS011;4900;49.306;8.500;2023-12-20T09:54:16;5.17;;;2.40;;
9722;SDS011;4900;49.306;8.500;2023-12-20T09:56:43;4.80;;;2.63;;
9722;SDS011;4900;49.306;8.500;2023-12-20T09:59:09;4.83;;;2.53;;
9722;SDS011;4900;49.306;8.500;2023-12-20T10:01:35;6.43;;;2.60;;
9722;SDS011;4900;49.306;8.500;2023-12-20T10:04:01;5.70;;;2.70;;
9722;SDS011;4900;49.306;8.500;2023-12-20T10:06:37;6.00;;;2.43;;
9722;SDS011;4900;49.306;8.500;2023-12-20T10:09:06;5.20;;;2.47;;
9722;SDS011;4900;49.306;8.500;2023-12-20T10:11:31;5.87;;;2.70;;
9722;SDS011;4900;49.306;8.500;2023-12-20T10:14:00;4.17;;;2.10;;
9722;SDS011;4900;49.306;8.500;2023-12-20T10:16:26;4.33;;;2.20;;
9722;SDS011;4900;49.306;8.500;2023-12-20T10:18:54;6.00;;;2.43;;
9722;SDS011;4900;49.306;8.500;2023-12-20T10:21:20;5.23;;;2.50;;
9722;SDS011;4900;49.306;8.500;2023-12-20T10:23:47;4.73;;;2.40;;
9722;SDS011;4900;49.306;8.500;2023-12-20T10:26:21;7.83;;;2.47;;
9722;SDS011;4900;49.306;8.500;2023-12-20T10:28:51;5.87;;;2.80;;
9722;SDS011;4900;49.306;8.500;2023-12-20T10:33:58;5.97;;;2.90;;
9722;SDS011;4900;49.306;8.500;2023-12-20T10:36:25;5.30;;;2.20;;
9722;SDS011;4900;49.306;8.500;2023-12-20T10:38:54;5.83;;;2.57;;
9722;SDS011;4900;49.306;8.500;2023-12-20T10:41:24;6.87;;;4.03;;
9722;SDS011;4900;49.306;8.500;2023-12-20T10:43:51;5.67;;;2.53;;
9722;SDS011;4900;49.306;8.500;2023-12-20T10:46:17;9.10;;;3.20;;
9722;SDS011;4900;49.306;8.500;2023-12-20T10:48:45;3.03;;;2.20;;
9722;SDS011;4900;49.306;8.500;2023-12-20T10:51:11;5.43;;;2.50;;
9722;SDS011;4900;49.306;8.500;2023-12-20T10:53:42;5.17;;;2.40;;
9722;SDS011;4900;49.306;8.500;2023-12-20T10:56:08;4.57;;;2.60;;
9722;SDS011;4900;49.306;8.500;2023-12-20T10:58:39;4.80;;;2.50;;
9722;SDS011;4900;49.306;8.500;2023-12-20T11:01:08;4.73;;;2.30;;
9722;SDS011;4900;49.306;8.500;2023-12-20T11:03:34;6.67;;;2.70;;
9722;SDS011;4900;49.306;8.500;2023-12-20T11:09:01;4.60;;;2.63;;
9722;SDS011;4900;49.306;8.500;2023-12-20T11:14:31;3.47;;;2.70;;
9722;SDS011;4900;49.306;8.500;2023-12-20T11:17:09;6.87;;;2.97;;
9722;SDS011;4900;49.306;8.500;2023-12-20T11:22:21;6.37;;;2.80;;
9722;SDS011;4900;49.306;8.500;2023-12-20T11:24:51;7.23;;;2.77;;
9722;SDS011;4900;49.306;8.500;2023-12-20T11:27:18;5.17;;;2.70;;
9722;SDS011;4900;49.306;8.500;2023-12-20T11:29:50;3.43;;;2.67;;
9722;SDS011;4900;49.306;8.500;2023-12-20T11:35:27;3.07;;;2.77;;
9722;SDS011;4900;49.306;8.500;2023-12-20T11:37:45;4.87;;;3.00;;
9722;SDS011;4900;49.306;8.500;2023-12-20T11:40:15;5.37;;;3.13;;
9722;SDS011;4900;49.306;8.500;2023-12-20T11:42:42;8.27;;;3.50;;
9722;SDS011;4900;49.306;8.500;2023-12-20T11:45:13;6.27;;;3.10;;
9722;SDS011;4900;49.306;8.500;2023-12-20T11:47:48;6.80;;;2.83;;
9722;SDS011;4900;49.306;8.500;2023-12-20T11:50:19;5.13;;;2.77;;
9722;SDS011;4900;49.306;8.500;2023-12-20T11:52:45;7.13;;;2.80;;
9722;SDS011;4900;49.306;8.500;2023-12-20T11:55:11;3.73;;;2.60;;
9722;SDS011;4900;49.306;8.500;2023-12-20T11:57:37;4.10;;;2.77;;
9722;SDS011;4900;49.306;8.500;2023-12-20T12:00:03;4.03;;;3.00;;
9722;SDS011;4900;49.306;8.500;2023-12-20T12:02:30;6.17;;;3.20;;
9722;SDS011;4900;49.306;8.500;2023-12-20T12:04:56;5.37;;;2.77;;
9722;SDS011;4900;49.306;8.500;2023-12-20T12:07:22;5.03;;;2.93;;
9722;SDS011;4900;49.306;8.500;2023-12-20T12:09:47;6.33;;;2.90;;
9722;SDS011;4900;49.306;8.500;2023-12-20T12:12:13;5.77;;;2.90;;
9722;SDS011;4900;49.306;8.500;2023-12-20T12:14:39;6.23;;;3.63;;
9722;SDS011;4900;49.306;8.500;2023-12-20T12:17:11;6.80;;;3.27;;
9722;SDS011;4900;49.306;8.500;2023-12-20T12:19:41;6.97;;;3.00;;
9722;SDS011;4900;49.306;8.500;2023-12-20T12:22:10;5.30;;;3.00;;
9722;SDS011;4900;49.306;8.500;2023-12-20T12:24:44;7.37;;;3.33;;
9722;SDS011;4900;49.306;8.500;2023-12-20T12:27:11;4.53;;;3.00;;
9722;SDS011;4900;49.306;8.500;2023-12-20T12:29:38;4.17;;;2.80;;
9722;SDS011;4900;49.306;8.500;2023-12-20T12:32:04;3.77;;;2.70;;
9722;SDS011;4900;49.306;8.500;2023-12-20T12:34:32;5.87;;;3.17;;
9722;SDS011;4900;49.306;8.500;2023-12-20T12:36:58;9.37;;;4.10;;
9722;SDS011;4900;49.306;8.500;2023-12-20T12:39:23;7.80;;;3.33;;
9722;SDS011;4900;49.306;8.500;2023-12-20T12:41:52;6.13;;;2.70;;
9722;SDS011;4900;49.306;8.500;2023-12-20T12:44:18;4.30;;;2.80;;
9722;SDS011;4900;49.306;8.500;2023-12-20T12:46:47;6.37;;;3.70;;
9722;SDS011;4900;49.306;8.500;2023-12-20T12:49:15;8.53;;;3.90;;
9722;SDS011;4900;49.306;8.500;2023-12-20T12:51:40;6.80;;;3.40;;
9722;SDS011;4900;49.306;8.500;2023-12-20T12:54:06;5.77;;;3.13;;
9722;SDS011;4900;49.306;8.500;2023-12-20T12:56:31;5.40;;;3.20;;
9722;SDS011;4900;49.306;8.500;2023-12-20T12:58:57;5.33;;;3.00;;
9722;SDS011;4900;49.306;8.500;2023-12-20T13:01:22;5.43;;;3.30;;
9722;SDS011;4900;49.306;8.500;2023-12-20T13:03:48;6.43;;;2.57;;
9722;SDS011;4900;49.306;8.500;2023-12-20T13:06:13;6.17;;;3.30;;
9722;SDS011;4900;49.306;8.500;2023-12-20T13:08:39;6.70;;;3.30;;
9722;SDS011;4900;49.306;8.500;2023-12-20T13:11:05;4.77;;;3.20;;
9722;SDS011;4900;49.306;8.500;2023-12-20T13:13:30;5.70;;;3.27;;
9722;SDS011;4900;49.306;8.500;2023-12-20T13:15:56;9.70;;;3.83;;
9722;SDS011;4900;49.306;8.500;2023-12-20T13:18:23;7.83;;;3.63;;
9722;SDS011;4900;49.306;8.500;2023-12-20T13:20:49;6.03;;;3.30;;
9722;SDS011;4900;49.306;8.500;2023-12-20T13:23:15;7.50;;;3.40;;
9722;SDS011;4900;49.306;8.500;2023-12-20T13:25:44;7.30;;;2.87;;
9722;SDS011;4900;49.306;8.500;2023-12-20T13:28:11;7.73;;;3.00;;
9722;SDS011;4900;49.306;8.500;2023-12-20T13:30:37;6.13;;;3.40;;
9722;SDS011;4900;49.306;8.500;2023-12-20T13:33:04;6.90;;;3.13;;
9722;SDS011;4900;49.306;8.500;2023-12-20T13:35:30;6.00;;;3.13;;
9722;SDS011;4900;49.306;8.500;2023-12-20T13:37:57;4.40;;;2.70;;
9722;SDS011;4900;49.306;8.500;2023-12-20T13:40:22;5.23;;;2.83;;
9722;SDS011;4900;49.306;8.500;2023-12-20T13:42:48;4.80;;;2.87;;
9722;SDS011;4900;49.306;8.500;2023-12-20T13:45:13;5.50;;;2.60;;
9722;SDS011;4900;49.306;8.500;2023-12-20T13:47:39;5.07;;;2.63;;
9722;SDS011;4900;49.306;8.500;2023-12-20T13:50:05;4.90;;;2.80;;
9722;SDS011;4900;49.306;8.500;2023-12-20T13:52:30;6.53;;;3.00;;
9722;SDS011;4900;49.306;8.500;2023-12-20T13:54:56;5.47;;;2.83;;
9722;SDS011;4900;49.306;8.500;2023-12-20T13:57:21;3.80;;;2.50;;
9722;SDS011;4900;49.306;8.500;2023-12-20T13:59:47;5.60;;;2.60;;
9722;SDS011;4900;49.306;8.500;2023-12-20T14:02:12;4.77;;;2.60;;
9722;SDS011;4900;49.306;8.500;2023-12-20T14:04:41;6.13;;;2.90;;
9722;SDS011;4900;49.306;8.500;2023-12-20T14:07:07;4.97;;;2.73;;
9722;SDS011;4900;49.306;8.500;2023-12-20T14:09:34;8.53;;;2.97;;
9722;SDS011;4900;49.306;8.500;2023-12-20T14:12:00;5.57;;;2.67;;
9722;SDS011;4900;49.306;8.500;2023-12-20T14:14:25;5.73;;;2.47;;
9722;SDS011;4900;49.306;8.500;2023-12-20T14:16:50;5.73;;;2.67;;
9722;SDS011;4900;49.306;8.500;2023-12-20T14:19:16;3.27;;;2.40;;
9722;SDS011;4900;49.306;8.500;2023-12-20T14:21:47;8.07;;;2.93;;
9722;SDS011;4900;49.306;8.500;2023-12-20T14:24:12;6.17;;;2.20;;
9722;SDS011;4900;49.306;8.500;2023-12-20T14:26:40;5.13;;;2.70;;
9722;SDS011;4900;49.306;8.500;2023-12-20T14:29:06;5.60;;;2.93;;
9722;SDS011;4900;49.306;8.500;2023-12-20T14:31:32;6.40;;;3.17;;
9722;SDS011;4900;49.306;8.500;2023-12-20T14:33:58;4.17;;;2.83;;
9722;SDS011;4900;49.306;8.500;2023-12-20T14:36:24;6.10;;;3.20;;
9722;SDS011;4900;49.306;8.500;2023-12-20T14:38:50;4.73;;;3.33;;
9722;SDS011;4900;49.306;8.500;2023-12-20T14:41:15;6.80;;;3.57;;
9722;SDS011;4900;49.306;8.500;2023-12-20T14:43:43;5.60;;;3.20;;
9722;SDS011;4900;49.306;8.500;2023-12-20T14:46:08;6.13;;;3.10;;
9722;SDS011;4900;49.306;8.500;2023-12-20T14:48:34;5.73;;;3.40;;
9722;SDS011;4900;49.306;8.500;2023-12-20T14:50:59;7.83;;;3.40;;
9722;SDS011;4900;49.306;8.500;2023-12-20T14:53:25;6.10;;;3.10;;
9722;SDS011;4900;49.306;8.500;2023-12-20T14:55:51;4.40;;;2.50;;
9722;SDS011;4900;49.306;8.500;2023-12-20T14:58:16;5.97;;;2.70;;
9722;SDS011;4900;49.306;8.500;2023-12-20T15:00:42;6.27;;;3.10;;
9722;SDS011;4900;49.306;8.500;2023-12-20T15:03:09;6.37;;;3.07;;
9722;SDS011;4900;49.306;8.500;2023-12-20T15:05:34;6.23;;;2.83;;
9722;SDS011;4900;49.306;8.500;2023-12-20T15:08:00;6.37;;;3.30;;
9722;SDS011;4900;49.306;8.500;2023-12-20T15:10:26;5.97;;;3.07;;
9722;SDS011;4900;49.306;8.500;2023-12-20T15:12:52;6.83;;;3.33;;
9722;SDS011;4900;49.306;8.500;2023-12-20T15:15:17;7.03;;;3.20;;
9722;SDS011;4900;49.306;8.500;2023-12-20T15:17:42;5.80;;;3.27;;
9722;SDS011;4900;49.306;8.500;2023-12-20T15:20:08;5.97;;;3.00;;
9722;SDS011;4900;49.306;8.500;2023-12-20T15:22:35;6.33;;;3.33;;
9722;SDS011;4900;49.306;8.500;2023-12-20T15:25:01;8.60;;;3.10;;